createdAt,value
2023-05-14T00:00:30.676Z,100884.94
2023-05-14T00:02:57.852Z,100859.38
2023-05-14T00:05:25.198Z,100783.88
2023-05-14T00:07:52.226Z,100845.06
2023-05-14T00:10:20.891Z,100842.19
2023-05-14T00:12:48.157Z,100842.88
2023-05-14T00:15:15.386Z,100841.94
2023-05-14T00:17:42.841Z,100783.06
2023-05-14T00:20:12.205Z,100755.09
2023-05-14T00:22:39.937Z,100759.94
2023-05-14T00:25:08.257Z,100820.88
2023-05-14T00:27:37.882Z,100779.75
2023-05-14T00:30:07.187Z,100816.97
2023-05-14T00:32:34.418Z,100799.00
2023-05-14T00:35:03.253Z,100737.31
2023-05-14T00:37:30.718Z,100703.31
2023-05-14T00:39:58.924Z,100652.47
2023-05-14T00:42:27.231Z,100656.72
2023-05-14T00:44:54.314Z,100695.88
2023-05-14T00:47:21.425Z,100766.19
2023-05-14T00:49:48.605Z,100846.31
2023-05-14T00:52:16.971Z,100778.19
2023-05-14T00:54:46.080Z,100767.00
2023-05-14T00:57:13.303Z,100775.81
2023-05-14T00:59:41.978Z,100765.63
2023-05-14T01:02:09.111Z,100786.97
2023-05-14T01:04:36.379Z,100776.78
2023-05-14T01:07:45.016Z,100728.09
2023-05-14T01:10:36.071Z,100764.81
2023-05-14T01:13:18.652Z,100755.66
2023-05-14T01:15:48.010Z,100771.59
2023-05-14T01:18:19.250Z,100760.72
2023-05-14T01:20:46.499Z,100743.38
2023-05-14T01:23:13.542Z,100748.56
2023-05-14T01:25:41.610Z,100732.06
2023-05-14T01:28:20.621Z,100733.22
2023-05-14T01:31:10.614Z,100733.78
2023-05-14T01:33:41.856Z,100732.72
2023-05-14T01:36:10.051Z,100755.06
2023-05-14T01:38:38.618Z,100749.09
2023-05-14T01:41:06.383Z,100751.66
2023-05-14T01:43:34.045Z,100740.97
2023-05-14T01:46:01.551Z,100746.84
2023-05-14T01:48:30.109Z,100742.00
2023-05-14T01:50:57.258Z,100737.69
2023-05-14T01:53:24.629Z,100754.59
2023-05-14T01:55:51.888Z,100766.28
2023-05-14T01:58:20.063Z,100756.31
2023-05-14T02:00:47.386Z,100759.38
2023-05-14T02:03:16.010Z,100732.50
2023-05-14T02:05:42.977Z,100716.69
2023-05-14T02:08:10.763Z,100722.44
2023-05-14T02:10:37.937Z,100731.25
2023-05-14T02:13:05.140Z,100732.41
2023-05-14T02:15:32.196Z,100716.16
2023-05-14T02:17:59.363Z,100707.00
2023-05-14T02:20:26.595Z,100720.75
2023-05-14T02:22:53.570Z,100735.28
2023-05-14T02:25:21.216Z,100704.47
2023-05-14T02:27:48.592Z,100698.06
2023-05-14T02:30:15.774Z,100716.16
2023-05-14T02:32:44.000Z,100791.81
2023-05-14T02:35:11.160Z,100802.69
2023-05-14T02:37:38.511Z,100787.25
2023-05-14T02:40:06.658Z,100776.53
2023-05-14T02:42:34.041Z,100767.72
2023-05-14T02:45:01.222Z,100765.63
2023-05-14T02:47:28.399Z,100764.00
2023-05-14T02:49:55.516Z,100807.06
2023-05-14T02:52:22.635Z,100815.00
2023-05-14T02:54:49.785Z,100755.09
2023-05-14T02:57:16.807Z,100797.63
2023-05-14T02:59:43.932Z,100809.63
2023-05-14T03:02:11.235Z,100762.41
2023-05-14T03:04:38.813Z,100773.88
2023-05-14T03:07:06.150Z,100791.97
2023-05-14T03:09:33.673Z,100784.06
2023-05-14T03:12:01.365Z,100782.81
2023-05-14T03:14:28.569Z,100774.56
2023-05-14T03:16:55.689Z,100767.00
2023-05-14T03:19:22.853Z,100741.47
2023-05-14T03:21:50.321Z,100734.34
2023-05-14T03:24:17.470Z,100745.47
2023-05-14T03:26:44.611Z,100734.25
2023-05-14T03:29:11.736Z,100734.38
2023-05-14T03:31:38.747Z,100760.28
2023-05-14T03:34:06.139Z,100772.06
2023-05-14T03:36:34.305Z,100764.63
2023-05-14T03:39:01.457Z,100769.34
2023-05-14T03:41:28.479Z,100769.50
2023-05-14T03:43:55.831Z,100787.94
2023-05-14T03:46:22.908Z,100818.06
2023-05-14T03:48:50.241Z,100831.69
2023-05-14T03:51:17.448Z,100818.75
2023-05-14T03:53:44.719Z,100805.38
2023-05-14T03:56:13.303Z,100780.38
2023-05-14T03:58:40.844Z,100764.00
2023-05-14T04:01:07.839Z,100809.63
2023-05-14T04:03:35.169Z,100844.19
2023-05-14T04:06:02.388Z,100865.38
2023-05-14T04:08:29.574Z,100855.47
2023-05-14T04:10:56.954Z,100826.59
2023-05-14T04:13:24.134Z,100753.06
2023-05-14T04:15:51.417Z,100757.41
2023-05-14T04:18:18.845Z,100861.78
2023-05-14T04:20:45.927Z,100870.03
2023-05-14T04:23:13.140Z,100846.44
2023-05-14T04:25:40.178Z,100899.47
2023-05-14T04:28:07.363Z,100871.31
2023-05-14T04:30:34.404Z,100862.50
2023-05-14T04:33:01.551Z,100806.78
2023-05-14T04:35:28.814Z,100804.81
2023-05-14T04:37:56.106Z,100789.00
2023-05-14T04:40:23.389Z,100768.00
2023-05-14T04:42:51.807Z,100728.22
2023-05-14T04:45:19.361Z,100726.84
2023-05-14T04:47:46.911Z,100747.09
2023-05-14T04:50:14.475Z,100766.69
2023-05-14T04:52:41.821Z,100867.19
2023-05-14T04:55:09.430Z,100906.63
2023-05-14T04:57:36.542Z,100922.47
2023-05-14T05:00:06.006Z,100934.28
2023-05-14T05:02:34.967Z,100948.16
2023-05-14T05:05:02.555Z,101005.28
2023-05-14T05:07:29.689Z,100985.91
2023-05-14T05:09:56.735Z,100973.63
2023-05-14T05:12:23.935Z,100974.50
2023-05-14T05:14:51.132Z,100994.31
2023-05-14T05:17:18.101Z,100965.31
2023-05-14T05:19:45.208Z,100938.06
2023-05-14T05:22:12.343Z,100946.63
2023-05-14T05:24:39.354Z,100941.78
2023-05-14T05:27:06.487Z,100948.19
2023-05-14T05:29:35.642Z,100935.28
2023-05-14T05:32:02.679Z,100950.38
2023-05-14T05:34:29.919Z,100952.13
2023-05-14T05:36:57.093Z,100956.63
2023-05-14T05:39:24.135Z,100937.59
2023-05-14T05:41:51.216Z,100915.13
2023-05-14T05:44:18.253Z,100904.31
2023-05-14T05:46:45.340Z,100903.94
2023-05-14T05:49:12.380Z,100899.72
2023-05-14T05:51:39.502Z,100897.63
2023-05-14T05:54:06.481Z,100894.34
2023-05-14T05:56:33.570Z,100908.16
2023-05-14T05:59:00.656Z,100924.84
2023-05-14T06:01:29.657Z,100932.19
2023-05-14T06:03:57.140Z,100935.38
2023-05-14T06:06:24.341Z,100933.78
2023-05-14T06:08:51.388Z,100929.25
2023-05-14T06:11:18.457Z,100935.69
2023-05-14T06:13:45.508Z,100934.72
2023-05-14T06:16:12.588Z,100933.88
2023-05-14T06:18:39.663Z,100932.38
2023-05-14T06:21:06.785Z,100920.88
2023-05-14T06:23:34.002Z,100928.59
2023-05-14T06:26:01.130Z,100940.00
2023-05-14T06:28:28.393Z,100952.91
2023-05-14T06:30:56.062Z,100961.72
2023-05-14T06:33:29.838Z,100958.16
2023-05-14T06:36:01.127Z,100953.94
2023-05-14T06:38:28.255Z,100949.66
2023-05-14T06:40:55.399Z,100945.56
2023-05-14T06:43:22.505Z,100951.47
2023-05-14T06:45:52.842Z,100962.19
2023-05-14T06:48:20.454Z,100980.31
2023-05-14T06:50:48.613Z,100980.19
2023-05-14T06:53:16.213Z,100966.63
2023-05-14T06:55:43.378Z,100958.88
2023-05-14T06:58:10.607Z,100943.44
2023-05-14T07:00:37.746Z,100949.38
2023-05-14T07:03:05.025Z,100987.47
2023-05-14T07:05:32.463Z,100969.19
2023-05-14T07:07:59.869Z,100979.22
2023-05-14T07:10:26.965Z,101009.44
2023-05-14T07:12:54.002Z,100934.19
2023-05-14T07:15:21.413Z,100845.28
2023-05-14T07:17:48.576Z,100884.84
2023-05-14T07:20:15.666Z,100892.63
2023-05-14T07:22:42.744Z,100831.47
2023-05-14T07:25:10.193Z,100767.91
2023-05-14T07:27:37.205Z,100684.63
2023-05-14T07:30:04.642Z,100626.00
2023-05-14T07:32:31.676Z,100607.63
2023-05-14T07:34:58.921Z,100588.13
2023-05-14T07:37:26.308Z,100640.56
2023-05-14T07:39:53.896Z,100663.56
2023-05-14T07:42:34.415Z,100692.88
2023-05-14T07:45:02.865Z,100821.38
2023-05-14T07:47:30.126Z,100872.59
2023-05-14T07:49:57.848Z,100842.38
2023-05-14T07:52:25.154Z,100855.00
2023-05-14T07:54:52.561Z,100908.22
2023-05-14T07:57:20.130Z,100932.00
2023-05-14T07:59:48.754Z,100885.97
2023-05-14T08:02:18.718Z,100878.41
2023-05-14T08:04:45.862Z,100904.03
2023-05-14T08:07:13.149Z,100912.66
2023-05-14T08:09:40.357Z,100867.22
2023-05-14T08:12:07.850Z,100899.00
2023-05-14T08:14:34.958Z,100891.72
2023-05-14T08:17:02.293Z,100931.88
2023-05-14T08:19:29.612Z,100939.94
2023-05-14T08:21:56.709Z,100888.72
2023-05-14T08:24:23.801Z,100873.84
2023-05-14T08:26:50.935Z,100937.28
2023-05-14T08:29:18.043Z,100933.41
2023-05-14T08:31:45.015Z,100892.84
2023-05-14T08:34:12.126Z,100852.34
2023-05-14T08:36:39.549Z,100817.41
2023-05-14T08:39:07.962Z,100790.72
2023-05-14T08:41:35.296Z,100756.56
2023-05-14T08:44:15.522Z,100708.13
2023-05-14T08:46:42.562Z,100726.25
2023-05-14T08:49:40.997Z,100765.91
2023-05-14T08:52:09.686Z,100786.91
2023-05-14T08:54:36.974Z,100784.28
2023-05-14T08:57:05.623Z,100781.06
2023-05-14T08:59:33.012Z,100788.75
2023-05-14T09:02:03.159Z,100802.59
2023-05-14T09:04:31.589Z,100826.59
2023-05-14T09:07:01.678Z,100830.31
2023-05-14T09:09:29.221Z,100827.13
2023-05-14T09:11:56.419Z,100816.59
2023-05-14T09:14:24.207Z,100836.72
2023-05-14T09:16:52.082Z,100870.88
2023-05-14T09:19:19.772Z,100902.13
2023-05-14T09:21:48.023Z,100914.97
2023-05-14T09:24:23.150Z,100910.78
2023-05-14T09:26:52.765Z,100897.25
2023-05-14T09:29:20.098Z,100864.06
2023-05-14T09:31:51.927Z,100884.63
2023-05-14T09:34:32.721Z,100910.44
2023-05-14T09:37:05.304Z,100913.72
2023-05-14T09:39:33.677Z,100910.16
2023-05-14T09:42:01.342Z,100804.53
2023-05-14T09:44:28.960Z,100657.34
2023-05-14T09:46:56.694Z,100592.63
2023-05-14T09:49:23.815Z,100623.59
2023-05-14T09:51:51.512Z,100681.09
2023-05-14T09:54:18.852Z,100742.13
2023-05-14T09:56:45.990Z,100752.16
2023-05-14T09:59:13.402Z,100757.75
2023-05-14T10:01:44.331Z,100810.06
2023-05-14T10:04:12.782Z,100808.94
2023-05-14T10:06:42.250Z,100783.47
2023-05-14T10:09:19.551Z,100791.84
2023-05-14T10:11:52.881Z,100794.84
2023-05-14T10:14:43.338Z,100810.16
2023-05-14T10:17:18.427Z,100825.72
2023-05-14T10:19:54.188Z,100823.78
2023-05-14T10:22:24.675Z,100805.81
2023-05-14T10:24:52.812Z,100796.03
2023-05-14T10:27:23.689Z,100774.50
2023-05-14T10:29:55.777Z,100729.56
2023-05-14T10:32:26.345Z,100671.22
2023-05-14T10:34:54.089Z,100710.59
2023-05-14T10:37:24.362Z,100718.28
2023-05-14T10:39:56.592Z,100757.25
2023-05-14T10:42:40.919Z,100824.56
2023-05-14T10:45:10.476Z,100916.13
2023-05-14T10:47:43.058Z,100973.88
2023-05-14T10:50:15.173Z,101006.56
2023-05-14T10:52:43.792Z,100991.91
2023-05-14T10:55:14.527Z,100926.38
2023-05-14T10:57:45.280Z,100900.31
2023-05-14T11:00:14.670Z,100944.47
2023-05-14T11:02:44.030Z,100965.72
2023-05-14T11:05:17.430Z,100985.91
2023-05-14T11:07:47.561Z,100988.53
2023-05-14T11:10:14.822Z,100943.97
2023-05-14T11:12:50.321Z,100925.31
2023-05-14T11:15:26.379Z,100871.78
2023-05-14T11:17:54.431Z,100822.44
2023-05-14T11:20:22.079Z,100746.72
2023-05-14T11:22:51.910Z,100682.16
2023-05-14T11:25:19.186Z,100740.53
2023-05-14T11:27:48.161Z,100671.03
2023-05-14T11:30:20.002Z,100674.50
2023-05-14T11:32:49.337Z,100727.50
2023-05-14T11:35:17.865Z,100740.84
2023-05-14T11:37:52.441Z,100718.78
2023-05-14T11:40:20.077Z,100768.97
2023-05-14T11:42:47.352Z,100845.53
2023-05-14T11:45:24.481Z,100859.09
2023-05-14T11:47:53.075Z,100867.06
2023-05-14T11:50:22.121Z,100893.16
2023-05-14T11:52:50.929Z,100949.75
2023-05-14T11:55:18.310Z,101015.03
2023-05-14T11:57:45.576Z,101049.13
2023-05-14T12:00:21.787Z,101045.13
2023-05-14T12:02:50.232Z,101036.75
2023-05-14T12:05:17.660Z,101040.78
2023-05-14T12:07:45.864Z,101005.06
2023-05-14T12:10:13.891Z,100991.88
2023-05-14T12:12:41.497Z,100955.38
2023-05-14T12:15:13.614Z,100950.78
2023-05-14T12:17:40.931Z,100944.56
2023-05-14T12:20:12.589Z,100921.00
2023-05-14T12:22:42.528Z,100941.44
2023-05-14T12:25:14.180Z,100932.22
2023-05-14T12:27:44.921Z,100920.06
2023-05-14T12:30:21.190Z,100923.25
2023-05-14T12:32:51.901Z,100878.44
2023-05-14T12:35:19.502Z,100861.91
2023-05-14T12:37:46.781Z,100877.31
2023-05-14T12:40:14.099Z,100877.31
2023-05-14T12:42:41.209Z,100856.22
2023-05-14T12:45:08.862Z,100843.94
2023-05-14T12:47:37.293Z,100833.97
2023-05-14T12:50:05.060Z,100854.84
2023-05-14T12:52:38.533Z,100855.22
2023-05-14T12:55:08.354Z,100841.69
2023-05-14T12:57:35.913Z,100802.22
2023-05-14T13:00:07.159Z,100819.34
2023-05-14T13:02:42.184Z,100805.91
2023-05-14T13:05:12.924Z,100746.28
2023-05-14T13:07:40.307Z,100675.34
2023-05-14T13:10:08.327Z,100677.22
2023-05-14T13:12:35.799Z,100680.09
2023-05-14T13:15:02.876Z,100697.69
2023-05-14T13:17:30.638Z,100733.34
2023-05-14T13:19:57.875Z,100713.72
2023-05-14T13:22:25.034Z,100677.63
2023-05-14T13:24:52.079Z,100677.16
2023-05-14T13:27:19.281Z,100708.31
2023-05-14T13:29:46.516Z,100720.00
2023-05-14T13:32:13.585Z,100715.88
2023-05-14T13:34:40.750Z,100701.94
2023-05-14T13:37:07.839Z,100709.38
2023-05-14T13:39:34.889Z,100668.78
2023-05-14T13:42:02.031Z,100649.13
2023-05-14T13:44:29.565Z,100666.94
2023-05-14T13:46:56.708Z,100701.44
2023-05-14T13:49:23.925Z,100712.53
2023-05-14T13:51:51.147Z,100719.75
2023-05-14T13:54:18.403Z,100718.81
2023-05-14T13:56:45.619Z,100696.81
2023-05-14T13:59:15.724Z,100700.94
2023-05-14T14:01:43.528Z,100673.44
2023-05-14T14:04:11.089Z,100644.53
2023-05-14T14:06:38.219Z,100670.88
2023-05-14T14:09:05.280Z,100703.09
2023-05-14T14:11:32.707Z,100713.53
2023-05-14T14:13:59.842Z,100686.19
2023-05-14T14:16:27.049Z,100696.25
2023-05-14T14:18:54.254Z,100741.09
2023-05-14T14:21:21.342Z,100776.81
2023-05-14T14:23:49.127Z,100771.28
2023-05-14T14:26:16.329Z,100774.41
2023-05-14T14:28:43.676Z,100749.53
2023-05-14T14:31:11.620Z,100745.13
2023-05-14T14:33:38.894Z,100766.81
2023-05-14T14:36:06.913Z,100767.34
2023-05-14T14:38:33.983Z,100742.53
2023-05-14T14:41:03.379Z,100714.53
2023-05-14T14:43:30.516Z,100713.28
2023-05-14T14:45:57.949Z,100720.22
2023-05-14T14:48:39.908Z,100750.78
2023-05-14T14:51:08.310Z,100758.81
2023-05-14T14:53:37.278Z,100741.75
2023-05-14T14:56:04.994Z,100697.91
2023-05-14T14:58:32.326Z,100700.41
2023-05-14T15:01:01.317Z,100706.81
2023-05-14T15:03:29.105Z,100676.03
2023-05-14T15:05:56.334Z,100645.44
2023-05-14T15:08:27.964Z,100600.66
2023-05-14T15:10:56.407Z,100559.69
2023-05-14T15:13:24.299Z,100606.47
2023-05-14T15:15:52.838Z,100696.31
2023-05-14T15:18:21.429Z,100694.50
2023-05-14T15:20:49.109Z,100663.94
2023-05-14T15:23:16.434Z,100652.56
2023-05-14T15:25:43.679Z,100650.44
2023-05-14T15:28:11.147Z,100640.03
2023-05-14T15:30:38.496Z,100650.16
2023-05-14T15:33:08.116Z,100661.91
2023-05-14T15:35:35.223Z,100675.84
2023-05-14T15:38:04.078Z,100680.56
2023-05-14T15:40:31.298Z,100686.53
2023-05-14T15:42:58.292Z,100702.78
2023-05-14T15:45:25.423Z,100699.59
2023-05-14T15:47:52.552Z,100688.19
2023-05-14T15:50:20.643Z,100684.94
2023-05-14T15:52:48.488Z,100693.09
2023-05-14T15:55:15.922Z,100695.25
2023-05-14T15:57:43.150Z,100700.28
2023-05-14T16:00:11.204Z,100694.25
2023-05-14T16:02:40.200Z,100691.69
2023-05-14T16:05:08.732Z,100694.81
2023-05-14T16:07:36.496Z,100701.75
2023-05-14T16:10:04.181Z,100698.19
2023-05-14T16:12:31.254Z,100697.53
2023-05-14T16:14:58.606Z,100687.84
2023-05-14T16:17:27.824Z,100673.06
2023-05-14T16:19:56.489Z,100671.19
2023-05-14T16:22:23.777Z,100680.06
2023-05-14T16:24:51.151Z,100681.66
2023-05-14T16:27:21.001Z,100686.63
2023-05-14T16:29:48.093Z,100680.25
2023-05-14T16:32:15.338Z,100695.22
2023-05-14T16:34:47.527Z,100688.06
2023-05-14T16:37:15.219Z,100671.09
2023-05-14T16:39:42.813Z,100656.06
2023-05-14T16:42:09.961Z,100643.88
2023-05-14T16:44:37.009Z,100633.22
2023-05-14T16:47:04.756Z,100639.88
2023-05-14T16:49:31.901Z,100635.53
2023-05-14T16:51:58.914Z,100641.03
2023-05-14T16:54:26.213Z,100643.38
2023-05-14T16:56:53.244Z,100639.44
2023-05-14T16:59:20.488Z,100626.44
2023-05-14T17:01:48.299Z,100639.63
2023-05-14T17:04:16.155Z,100641.16
2023-05-14T17:06:43.362Z,100630.06
2023-05-14T17:09:10.735Z,100623.72
2023-05-14T17:11:37.770Z,100617.88
2023-05-14T17:14:05.080Z,100614.66
2023-05-14T17:16:32.135Z,100624.91
2023-05-14T17:18:59.461Z,100629.16
2023-05-14T17:21:26.631Z,100627.91
2023-05-14T17:23:53.920Z,100630.25
2023-05-14T17:26:21.377Z,100640.41
2023-05-14T17:28:51.255Z,100650.16
2023-05-14T17:31:18.541Z,100638.28
2023-05-14T17:33:45.812Z,100632.22
2023-05-14T17:36:13.116Z,100621.81
2023-05-14T17:38:41.598Z,100619.78
2023-05-14T17:41:09.857Z,100611.44
2023-05-14T17:43:36.852Z,100608.59
2023-05-14T17:46:05.348Z,100614.34
2023-05-14T17:48:32.466Z,100621.72
2023-05-14T17:51:18.622Z,100633.38
2023-05-14T17:53:46.447Z,100634.88
2023-05-14T17:56:13.657Z,100643.13
2023-05-14T17:58:41.509Z,100658.25
2023-05-14T18:01:08.829Z,100652.81
2023-05-14T18:03:36.408Z,100649.28
2023-05-14T18:06:04.133Z,100638.50
2023-05-14T18:08:31.436Z,100628.56
2023-05-14T18:11:00.957Z,100624.94
2023-05-14T18:13:28.407Z,100638.63
2023-05-14T18:15:56.708Z,100645.25
2023-05-14T18:18:31.665Z,100660.72
2023-05-14T18:20:58.833Z,100666.56
2023-05-14T18:23:25.909Z,100662.31
2023-05-14T18:25:53.111Z,100667.75
2023-05-14T18:28:21.577Z,100653.88
2023-05-14T18:30:49.950Z,100660.53
2023-05-14T18:33:17.163Z,100652.63
2023-05-14T18:35:44.467Z,100661.94
2023-05-14T18:38:13.884Z,100667.56
2023-05-14T18:40:41.025Z,100673.31
2023-05-14T18:43:08.007Z,100680.44
2023-05-14T18:45:35.189Z,100687.06
2023-05-14T18:48:02.292Z,100680.06
2023-05-14T18:50:29.405Z,100671.81
2023-05-14T18:52:57.942Z,100675.25
2023-05-14T18:55:25.394Z,100686.97
2023-05-14T18:57:52.979Z,100690.88
2023-05-14T19:00:20.381Z,100696.72
2023-05-14T19:02:47.509Z,100690.09
2023-05-14T19:05:14.676Z,100694.81
2023-05-14T19:07:43.081Z,100704.16
2023-05-14T19:10:11.224Z,100700.88
2023-05-14T19:12:38.350Z,100715.78
2023-05-14T19:15:06.194Z,100715.06
2023-05-14T19:17:33.425Z,100729.91
2023-05-14T19:20:00.628Z,100727.16
2023-05-14T19:22:27.775Z,100707.78
2023-05-14T19:24:55.123Z,100685.28
2023-05-14T19:27:24.303Z,100656.63
2023-05-14T19:29:51.572Z,100657.44
2023-05-14T19:32:18.821Z,100692.66
2023-05-14T19:34:48.034Z,100736.59
2023-05-14T19:37:16.137Z,100735.78
2023-05-14T19:39:43.350Z,100722.97
2023-05-14T19:42:10.596Z,100744.41
2023-05-14T19:44:37.869Z,100781.81
2023-05-14T19:47:05.573Z,100798.41
2023-05-14T19:49:32.797Z,100815.59
2023-05-14T19:51:59.909Z,100825.81
2023-05-14T19:54:27.004Z,100816.66
2023-05-14T19:56:54.840Z,100811.50
2023-05-14T19:59:22.011Z,100815.59
2023-05-14T20:01:49.025Z,100796.69
2023-05-14T20:04:16.277Z,100798.75
2023-05-14T20:06:45.658Z,100779.88
2023-05-14T20:09:13.854Z,100792.56
2023-05-14T20:11:41.043Z,100798.53
2023-05-14T20:14:08.266Z,100790.09
2023-05-14T20:16:36.082Z,100791.44
2023-05-14T20:19:04.044Z,100796.59
2023-05-14T20:21:32.068Z,100780.78
2023-05-14T20:23:59.375Z,100761.78
2023-05-14T20:26:26.706Z,100767.97
2023-05-14T20:28:55.307Z,100766.81
2023-05-14T20:31:22.463Z,100746.53
2023-05-14T20:33:49.722Z,100733.13
2023-05-14T20:36:17.135Z,100774.84
2023-05-14T20:38:44.139Z,100788.59
2023-05-14T20:41:12.337Z,100715.94
2023-05-14T20:43:39.618Z,100681.78
2023-05-14T20:46:07.494Z,100660.28
2023-05-14T20:48:34.624Z,100682.59
2023-05-14T20:51:02.039Z,100717.66
2023-05-14T20:53:29.235Z,100708.28
2023-05-14T20:55:56.455Z,100686.03
2023-05-14T20:58:23.522Z,100666.78
2023-05-14T21:00:50.676Z,100663.31
2023-05-14T21:03:17.849Z,100661.72
2023-05-14T21:05:45.083Z,100670.69
2023-05-14T21:08:12.118Z,100668.19
2023-05-14T21:10:39.278Z,100695.72
2023-05-14T21:13:07.273Z,100687.56
2023-05-14T21:15:34.464Z,100671.56
2023-05-14T21:18:02.387Z,100665.13
2023-05-14T21:20:29.560Z,100652.72
2023-05-14T21:22:56.648Z,100662.13
2023-05-14T21:25:24.015Z,100658.66
2023-05-14T21:27:51.339Z,100646.53
2023-05-14T21:30:18.570Z,100641.66
2023-05-14T21:32:45.659Z,100651.03
2023-05-14T21:35:12.683Z,100641.69
2023-05-14T21:37:40.016Z,100645.25
2023-05-14T21:40:12.444Z,100633.09
2023-05-14T21:42:40.921Z,100635.41
2023-05-14T21:45:08.361Z,100630.97
2023-05-14T21:47:35.748Z,100640.03
2023-05-14T21:50:02.853Z,100644.53
2023-05-14T21:52:30.054Z,100620.47
2023-05-14T21:54:57.109Z,100621.91
2023-05-14T21:57:25.211Z,100614.69
2023-05-14T21:59:53.750Z,100616.06
2023-05-14T22:02:20.890Z,100620.59
2023-05-14T22:04:48.022Z,100619.69
2023-05-14T22:07:15.100Z,100614.44
2023-05-14T22:09:42.113Z,100617.19
2023-05-14T22:12:10.168Z,100612.38
2023-05-14T22:14:37.220Z,100623.84
2023-05-14T22:17:04.948Z,100653.56
2023-05-14T22:19:32.100Z,100684.91
2023-05-14T22:21:59.257Z,100649.38
2023-05-14T22:24:26.295Z,100590.59
2023-05-14T22:26:53.410Z,100621.56
2023-05-14T22:29:20.585Z,100639.13
2023-05-14T22:31:47.615Z,100609.44
2023-05-14T22:34:14.857Z,100641.91
2023-05-14T22:36:42.127Z,100632.19
2023-05-14T22:39:11.193Z,100616.03
2023-05-14T22:41:39.261Z,100642.63
2023-05-14T22:44:06.328Z,100640.91
2023-05-14T22:46:33.539Z,100615.25
2023-05-14T22:49:00.546Z,100628.88
2023-05-14T22:51:27.628Z,100624.66
2023-05-14T22:53:54.724Z,100623.06
2023-05-14T22:56:21.957Z,100628.22
2023-05-14T22:58:49.136Z,100629.81
2023-05-14T23:01:16.172Z,100618.47
2023-05-14T23:03:43.196Z,100611.53
2023-05-14T23:06:13.818Z,100602.69
2023-05-14T23:08:41.029Z,100610.13
2023-05-14T23:11:08.114Z,100584.63
2023-05-14T23:13:35.386Z,100569.38
2023-05-14T23:16:02.516Z,100542.41
2023-05-14T23:18:30.897Z,100536.91
2023-05-14T23:20:58.381Z,100535.75
2023-05-14T23:23:25.657Z,100523.66
2023-05-14T23:25:53.407Z,100507.59
2023-05-14T23:28:20.371Z,100499.03
2023-05-14T23:30:47.451Z,100477.06
2023-05-14T23:33:14.670Z,100472.38
2023-05-14T23:35:41.906Z,100468.81
2023-05-14T23:38:09.281Z,100460.22
2023-05-14T23:40:36.463Z,100441.00
2023-05-14T23:43:03.486Z,100452.78
2023-05-14T23:45:31.162Z,100448.78
2023-05-14T23:47:59.173Z,100458.97
2023-05-14T23:50:26.487Z,100450.63
2023-05-14T23:52:54.918Z,100410.91
2023-05-14T23:55:22.418Z,100405.78
2023-05-14T23:57:49.785Z,100387.72
